page 5352 of 1004913 registered users

eBook PostsUsers

  1. 0mallnic0 registered @ 2013-01-10 21:01:50, last login @ 2013-01-10 21:01:50
  2. 0bakerymanx7 registered @ 2013-01-10 21:02:13, last login @ 2013-01-10 21:02:13
  3. 0ease99memory registered @ 2013-01-10 21:05:06, last login @ 2013-01-10 21:34:58
  4. 0wound3horse registered @ 2013-01-10 21:06:08, last login @ 2013-01-10 21:06:08
  5. 0dimeburn8 registered @ 2013-01-10 21:06:38, last login @ 2013-01-10 21:06:38
  6. 0secure5chef registered @ 2013-01-10 21:06:43, last login @ 2013-01-10 21:06:43
  7. 0lungeshape99 registered @ 2013-01-10 21:08:18, last login @ 2013-01-10 21:08:18
  8. 0womankarate1 registered @ 2013-01-10 21:11:18, last login @ 2013-01-10 21:11:18
  9. 0camelsalt5 registered @ 2013-01-10 21:12:10, last login @ 2013-01-10 21:12:10
  10. 0platformakademi7 registered @ 2013-01-10 21:12:17, last login @ 2013-01-10 21:28:48
  11. 0bonsaipan9 registered @ 2013-01-10 21:12:41, last login @ 2013-01-10 21:12:41
  12. 0pumababies8 registered @ 2013-01-10 21:13:28, last login @ 2013-01-10 21:13:28
  13. 0asyousee registered @ 2013-01-10 21:14:30, last login @ 2013-01-10 21:22:13
  14. 0lauraesol registered @ 2013-01-10 21:17:58, last login @ 2013-01-10 21:23:18
  15. 0quiver80cross registered @ 2013-01-10 21:18:39, last login @ 2013-01-10 21:58:21
  16. 0cleotildew9v registered @ 2013-01-10 21:21:07, last login @ 2013-01-10 21:21:07
  17. 0UDnsingDU053 registered @ 2013-01-10 21:21:46, last login @ 2013-01-10 21:21:46
  18. 0hope3reason registered @ 2013-01-10 21:22:44, last login @ 2013-01-10 21:22:44
  19. 0rayonoboe8 registered @ 2013-01-10 21:23:57, last login @ 2013-01-10 22:00:30
  20. 0cordfather51 registered @ 2013-01-10 21:24:03, last login @ 2013-01-10 21:24:03
  21. 0ashu_nasir registered @ 2013-01-10 21:24:12, last login @ 2013-01-10 21:24:12
  22. 0bone5freeze registered @ 2013-01-10 21:24:26, last login @ 2013-01-10 21:24:26
  23. 0securestart1 registered @ 2013-01-10 21:24:39, last login @ 2013-01-10 21:24:39
  24. 0menge registered @ 2013-01-10 21:25:37, last login @ 2013-01-10 21:25:37
  25. 0shame4author registered @ 2013-01-10 21:27:57, last login @ 2013-01-10 21:27:57
  26. 0bjepbdpgy registered @ 2013-01-10 21:29:01, last login @ 2013-01-10 21:29:01
  27. 0dimejump99 registered @ 2013-01-10 21:29:44, last login @ 2013-01-10 21:29:44
  28. 0save16daisy registered @ 2013-01-10 21:30:23, last login @ 2013-01-10 21:30:23
  29. 0temple31minute registered @ 2013-01-10 21:30:41, last login @ 2013-01-10 21:30:41
  30. 0manx12mail registered @ 2013-01-10 21:31:02, last login @ 2013-01-10 21:31:02
  31. 0dollhelen7 registered @ 2013-01-10 21:32:01, last login @ 2013-01-10 21:32:01
  32. 0yellowenergy06 registered @ 2013-01-10 21:32:49, last login @ 2013-01-10 21:32:49
  33. 0bengal51trout registered @ 2013-01-10 21:34:45, last login @ 2013-01-10 21:34:45
  34. 0income4rain registered @ 2013-01-10 21:35:49, last login @ 2013-01-10 21:35:49
  35. 0quartlyric0 registered @ 2013-01-10 21:35:55, last login @ 2013-01-10 21:35:55
  36. 0land06study registered @ 2013-01-10 21:36:30, last login @ 2013-01-10 21:36:30
  37. 0packet4denim registered @ 2013-01-10 21:37:59, last login @ 2013-01-10 21:37:59
  38. 0gray64lunge registered @ 2013-01-10 21:38:11, last login @ 2013-01-10 21:38:11
  39. 0rabbit1pump registered @ 2013-01-10 21:38:23, last login @ 2013-01-10 21:38:23
  40. 0woman87toilet registered @ 2013-01-10 21:40:29, last login @ 2013-01-10 21:40:29
  41. 0collarbirth14 registered @ 2013-01-10 21:41:23, last login @ 2013-01-10 21:41:23
  42. 0ocelot1bench registered @ 2013-01-10 21:42:21, last login @ 2013-01-10 21:42:21
  43. 0season5porch registered @ 2013-01-10 21:44:46, last login @ 2013-01-10 21:44:46
  44. 0eelthrone53 registered @ 2013-01-10 21:45:54, last login @ 2013-01-10 21:45:54
  45. 0larch89uncle registered @ 2013-01-10 21:46:03, last login @ 2013-01-10 21:46:03
  46. 0voice84mind registered @ 2013-01-10 21:46:05, last login @ 2013-01-10 21:46:05
  47. 0quiversprout47 registered @ 2013-01-10 21:46:22, last login @ 2013-01-10 21:46:22
  48. 0group87math registered @ 2013-01-10 21:47:47, last login @ 2013-01-10 21:47:47
  49. 0toybeast3 registered @ 2013-01-10 21:48:28, last login @ 2013-01-10 21:48:28
  50. 0menu49jumbo registered @ 2013-01-10 21:49:03, last login @ 2013-01-10 21:49:03
  51. 0feastankle5 registered @ 2013-01-10 21:49:47, last login @ 2013-01-10 21:49:47
  52. 0voyageshorts7 registered @ 2013-01-10 21:50:21, last login @ 2013-01-10 21:50:21
  53. 0europe04crayon registered @ 2013-01-10 21:52:38, last login @ 2013-01-10 21:52:38
  54. 0pushdress28 registered @ 2013-01-10 21:53:03, last login @ 2013-01-10 21:53:03
  55. 0mist45canada registered @ 2013-01-10 21:53:42, last login @ 2013-01-10 21:53:42
  56. 0coatcrate0 registered @ 2013-01-10 21:57:25, last login @ 2013-01-10 21:57:25
  57. 0door30crab registered @ 2013-01-10 21:57:31, last login @ 2013-01-10 21:57:31
  58. 0tauruscancer3 registered @ 2013-01-10 21:59:10, last login @ 2013-01-10 21:59:10
  59. 0loafpeace12 registered @ 2013-01-10 21:59:22, last login @ 2013-01-10 21:59:22
  60. 0baboonsun04 registered @ 2013-01-10 21:59:38, last login @ 2013-01-10 21:59:38
  61. 0belieftrick6 registered @ 2013-01-10 22:00:45, last login @ 2013-01-10 22:00:45
  62. 0polotree97 registered @ 2013-01-10 22:00:57, last login @ 2013-01-10 22:00:57
  63. 0peencard82 registered @ 2013-01-10 22:01:16, last login @ 2013-01-10 22:01:16
  64. 0child6side registered @ 2013-01-10 22:01:21, last login @ 2013-01-10 22:01:21
  65. 0guidebox66 registered @ 2013-01-10 22:03:06, last login @ 2013-01-10 22:37:09
  66. 0resultshorts58 registered @ 2013-01-10 22:04:02, last login @ 2013-01-10 22:04:02
  67. 0silk1june registered @ 2013-01-10 22:05:12, last login @ 2013-01-10 22:05:12
  68. 0lowgarlic3 registered @ 2013-01-10 22:06:41, last login @ 2013-01-10 22:06:41
  69. 0growthlan7 registered @ 2013-01-10 22:06:43, last login @ 2013-01-10 22:06:43
  70. 0recordshock0 registered @ 2013-01-10 22:06:59, last login @ 2013-01-10 22:06:59
  71. 0memorybird65 registered @ 2013-01-10 22:07:01, last login @ 2013-01-10 23:00:00
  72. 0Cli20019 registered @ 2013-01-10 22:07:04, last login @ 2013-01-10 22:07:04
  73. 0teamrock6 registered @ 2013-01-10 22:07:58, last login @ 2013-01-10 22:07:58
  74. 0fatlamb33 registered @ 2013-01-10 22:08:44, last login @ 2013-01-10 22:08:44
  75. 0deerbar25 registered @ 2013-01-10 22:08:47, last login @ 2013-01-10 22:08:47
  76. 0jarcopy93 registered @ 2013-01-10 22:11:23, last login @ 2013-01-10 22:11:23
  77. 0tongue03cello registered @ 2013-01-10 22:12:13, last login @ 2013-01-10 22:12:13
  78. 0squidlisa36 registered @ 2013-01-10 22:13:25, last login @ 2013-01-10 22:13:25
  79. 0canvas2spider registered @ 2013-01-10 22:14:15, last login @ 2013-01-10 22:43:36
  80. 0bugletie66 registered @ 2013-01-10 22:14:55, last login @ 2013-01-10 22:14:55
  81. 0gymepoch4 registered @ 2013-01-10 22:15:04, last login @ 2013-01-10 22:15:04
  82. 0chefplant8 registered @ 2013-01-10 22:17:20, last login @ 2013-01-10 22:17:20
  83. 0slimesandra35 registered @ 2013-01-10 22:17:37, last login @ 2013-01-10 22:17:37
  84. 0memory1metal registered @ 2013-01-10 22:18:51, last login @ 2013-01-10 22:18:51
  85. 0optionjumbo6 registered @ 2013-01-10 22:19:25, last login @ 2013-01-10 22:19:25
  86. 0piscesbabies0 registered @ 2013-01-10 22:19:31, last login @ 2013-01-10 22:19:31
  87. 0suede8pot registered @ 2013-01-10 22:19:40, last login @ 2013-01-10 22:42:14
  88. 0bucketattack3 registered @ 2013-01-10 22:20:09, last login @ 2013-01-10 22:20:09
  89. 0iris3pike registered @ 2013-01-10 22:20:23, last login @ 2013-01-10 22:20:23
  90. 0act3tulip registered @ 2013-01-10 22:20:36, last login @ 2013-01-10 22:20:36
  91. 0lisadetail88 registered @ 2013-01-10 22:21:16, last login @ 2013-01-10 22:21:16
  92. 0booksreviews registered @ 2013-01-10 22:21:29, last login @ 2013-01-10 22:21:29
  93. 0alimka registered @ 2013-01-10 22:22:15, last login @ 2013-01-10 22:22:15
  94. 0mouth79bottom registered @ 2013-01-10 22:22:29, last login @ 2013-01-10 22:22:29
  95. 0match2taiwan registered @ 2013-01-10 22:22:37, last login @ 2013-01-10 22:22:37
  96. 0soup2comb registered @ 2013-01-10 22:23:25, last login @ 2013-01-10 22:23:25
  97. 0danielbronze38 registered @ 2013-01-10 22:23:32, last login @ 2013-01-10 22:23:32
  98. 0bagpeen61 registered @ 2013-01-10 22:24:10, last login @ 2013-01-10 22:24:10
  99. 0dish2quail registered @ 2013-01-10 22:24:19, last login @ 2013-01-10 22:24:19
  100. 0dreamtouch80 registered @ 2013-01-10 22:25:57, last login @ 2013-01-10 22:25:57
  101. 0iciclemine9 registered @ 2013-01-10 22:26:13, last login @ 2013-01-10 22:26:13

More...

[5362] [5361] [5360] [5359] [5358] [5357] [5356] [5355] [5354] [5353] [5352] [5351] [5350] [5349] [5348] [5347] [5346] [5345] [5344] [5343] ...[1]
Back to Top